sensor_id;sensor_type;location;lat;lon;timestamp;temperature;humidity
2577;DHT22;1298;51.252;6.802;2023-02-15T00:02:15;4.80;99.90
2577;DHT22;1298;51.252;6.802;2023-02-15T00:05:00;4.70;99.90
2577;DHT22;1298;51.252;6.802;2023-02-15T00:07:45;4.80;99.90
2577;DHT22;1298;51.252;6.802;2023-02-15T00:10:31;4.70;99.90
2577;DHT22;1298;51.252;6.802;2023-02-15T00:13:16;4.70;99.90
2577;DHT22;1298;51.252;6.802;2023-02-15T00:16:03;4.60;99.90
2577;DHT22;1298;51.252;6.802;2023-02-15T00:18:48;4.60;99.90
2577;DHT22;1298;51.252;6.802;2023-02-15T00:21:37;4.50;99.90
2577;DHT22;1298;51.252;6.802;2023-02-15T00:24:22;4.50;99.90
2577;DHT22;1298;51.252;6.802;2023-02-15T00:27:07;4.50;99.90
2577;DHT22;1298;51.252;6.802;2023-02-15T00:29:54;4.50;99.90
2577;DHT22;1298;51.252;6.802;2023-02-15T00:32:41;4.40;99.90
2577;DHT22;1298;51.252;6.802;2023-02-15T00:35:26;4.40;99.90
2577;DHT22;1298;51.252;6.802;2023-02-15T00:38:11;4.40;99.90
2577;DHT22;1298;51.252;6.802;2023-02-15T00:40:56;4.40;99.90
2577;DHT22;1298;51.252;6.802;2023-02-15T00:43:42;4.40;99.90
2577;DHT22;1298;51.252;6.802;2023-02-15T00:46:27;4.40;99.90
2577;DHT22;1298;51.252;6.802;2023-02-15T00:49:13;4.30;99.90
2577;DHT22;1298;51.252;6.802;2023-02-15T00:51:59;4.40;99.90
2577;DHT22;1298;51.252;6.802;2023-02-15T00:54:44;4.30;99.90
2577;DHT22;1298;51.252;6.802;2023-02-15T00:57:29;4.30;99.90
2577;DHT22;1298;51.252;6.802;2023-02-15T01:00:14;4.30;99.90
2577;DHT22;1298;51.252;6.802;2023-02-15T01:02:59;4.30;99.90
2577;DHT22;1298;51.252;6.802;2023-02-15T01:05:46;4.30;99.90
2577;DHT22;1298;51.252;6.802;2023-02-15T01:08:32;4.20;99.90
2577;DHT22;1298;51.252;6.802;2023-02-15T01:11:17;4.20;99.90
2577;DHT22;1298;51.252;6.802;2023-02-15T01:14:05;4.20;99.90
2577;DHT22;1298;51.252;6.802;2023-02-15T01:16:50;4.10;99.90
2577;DHT22;1298;51.252;6.802;2023-02-15T01:19:36;4.00;99.90
2577;DHT22;1298;51.252;6.802;2023-02-15T01:22:22;4.00;99.90
2577;DHT22;1298;51.252;6.802;2023-02-15T01:25:07;4.00;99.90
2577;DHT22;1298;51.252;6.802;2023-02-15T01:27:52;4.00;99.90
2577;DHT22;1298;51.252;6.802;2023-02-15T01:30:37;3.90;99.90
2577;DHT22;1298;51.252;6.802;2023-02-15T01:33:23;3.90;99.90
2577;DHT22;1298;51.252;6.802;2023-02-15T01:36:08;3.90;99.90
2577;DHT22;1298;51.252;6.802;2023-02-15T01:38:54;3.90;99.90
2577;DHT22;1298;51.252;6.802;2023-02-15T01:41:39;3.80;99.90
2577;DHT22;1298;51.252;6.802;2023-02-15T01:47:29;3.90;99.90
2577;DHT22;1298;51.252;6.802;2023-02-15T01:50:18;3.80;99.90
2577;DHT22;1298;51.252;6.802;2023-02-15T01:53:05;3.80;99.90
2577;DHT22;1298;51.252;6.802;2023-02-15T01:55:54;3.70;99.90
2577;DHT22;1298;51.252;6.802;2023-02-15T01:58:40;3.70;99.90
2577;DHT22;1298;51.252;6.802;2023-02-15T02:01:25;3.70;99.90
2577;DHT22;1298;51.252;6.802;2023-02-15T02:04:13;3.70;99.90
2577;DHT22;1298;51.252;6.802;2023-02-15T02:07:00;3.70;99.90
2577;DHT22;1298;51.252;6.802;2023-02-15T02:09:45;3.70;99.90
2577;DHT22;1298;51.252;6.802;2023-02-15T02:12:33;3.60;99.90
2577;DHT22;1298;51.252;6.802;2023-02-15T02:15:20;3.60;99.90
2577;DHT22;1298;51.252;6.802;2023-02-15T02:18:12;3.70;99.90
2577;DHT22;1298;51.252;6.802;2023-02-15T02:21:11;3.60;99.90
2577;DHT22;1298;51.252;6.802;2023-02-15T02:24:05;3.60;99.90
2577;DHT22;1298;51.252;6.802;2023-02-15T02:27:01;3.60;99.90
2577;DHT22;1298;51.252;6.802;2023-02-15T02:30:12;3.60;99.90
2577;DHT22;1298;51.252;6.802;2023-02-15T02:33:07;3.60;99.90
2577;DHT22;1298;51.252;6.802;2023-02-15T02:35:59;3.60;99.90
2577;DHT22;1298;51.252;6.802;2023-02-15T02:38:54;3.60;99.90
2577;DHT22;1298;51.252;6.802;2023-02-15T02:41:43;3.60;99.90
2577;DHT22;1298;51.252;6.802;2023-02-15T02:44:31;3.50;99.90
2577;DHT22;1298;51.252;6.802;2023-02-15T02:47:19;3.50;99.90
2577;DHT22;1298;51.252;6.802;2023-02-15T02:50:11;3.40;99.90
2577;DHT22;1298;51.252;6.802;2023-02-15T02:52:58;3.30;99.90
2577;DHT22;1298;51.252;6.802;2023-02-15T02:55:44;3.30;99.90
2577;DHT22;1298;51.252;6.802;2023-02-15T02:58:31;3.30;99.90
2577;DHT22;1298;51.252;6.802;2023-02-15T03:01:18;3.20;99.90
2577;DHT22;1298;51.252;6.802;2023-02-15T03:04:06;3.30;99.90
2577;DHT22;1298;51.252;6.802;2023-02-15T03:06:55;3.20;99.90
2577;DHT22;1298;51.252;6.802;2023-02-15T03:09:44;3.20;99.90
2577;DHT22;1298;51.252;6.802;2023-02-15T03:12:31;3.20;99.90
2577;DHT22;1298;51.252;6.802;2023-02-15T03:15:18;3.20;99.90
2577;DHT22;1298;51.252;6.802;2023-02-15T03:18:04;3.10;99.90
2577;DHT22;1298;51.252;6.802;2023-02-15T03:20:49;3.10;99.90
2577;DHT22;1298;51.252;6.802;2023-02-15T03:23:36;3.10;99.90
2577;DHT22;1298;51.252;6.802;2023-02-15T03:26:23;3.10;99.90
2577;DHT22;1298;51.252;6.802;2023-02-15T03:29:09;3.00;99.90
2577;DHT22;1298;51.252;6.802;2023-02-15T03:31:58;3.00;99.90
2577;DHT22;1298;51.252;6.802;2023-02-15T03:34:44;3.00;99.90
2577;DHT22;1298;51.252;6.802;2023-02-15T03:37:32;3.00;99.90
2577;DHT22;1298;51.252;6.802;2023-02-15T03:40:21;2.90;99.90
2577;DHT22;1298;51.252;6.802;2023-02-15T03:43:29;3.00;99.90
2577;DHT22;1298;51.252;6.802;2023-02-15T03:46:23;3.00;99.90
2577;DHT22;1298;51.252;6.802;2023-02-15T03:49:12;3.00;99.90
2577;DHT22;1298;51.252;6.802;2023-02-15T03:51:59;2.90;99.90
2577;DHT22;1298;51.252;6.802;2023-02-15T03:54:45;3.00;99.90
2577;DHT22;1298;51.252;6.802;2023-02-15T03:57:32;2.90;99.90
2577;DHT22;1298;51.252;6.802;2023-02-15T04:00:39;2.90;99.90
2577;DHT22;1298;51.252;6.802;2023-02-15T04:03:45;2.90;99.90
2577;DHT22;1298;51.252;6.802;2023-02-15T04:06:31;2.90;99.90
2577;DHT22;1298;51.252;6.802;2023-02-15T04:09:16;2.90;99.90
2577;DHT22;1298;51.252;6.802;2023-02-15T04:12:19;2.80;99.90
2577;DHT22;1298;51.252;6.802;2023-02-15T04:15:08;2.80;99.90
2577;DHT22;1298;51.252;6.802;2023-02-15T04:18:11;2.80;99.90
2577;DHT22;1298;51.252;6.802;2023-02-15T04:20:56;2.80;99.90
2577;DHT22;1298;51.252;6.802;2023-02-15T04:23:59;2.80;99.90
2577;DHT22;1298;51.252;6.802;2023-02-15T04:27:03;2.80;99.90
2577;DHT22;1298;51.252;6.802;2023-02-15T04:29:48;2.80;99.90
2577;DHT22;1298;51.252;6.802;2023-02-15T04:32:35;2.80;99.90
2577;DHT22;1298;51.252;6.802;2023-02-15T04:35:20;2.90;99.90
2577;DHT22;1298;51.252;6.802;2023-02-15T04:38:06;2.90;99.90
2577;DHT22;1298;51.252;6.802;2023-02-15T04:40:51;2.80;99.90
2577;DHT22;1298;51.252;6.802;2023-02-15T04:43:36;2.80;99.90
2577;DHT22;1298;51.252;6.802;2023-02-15T04:46:22;2.80;99.90
2577;DHT22;1298;51.252;6.802;2023-02-15T04:49:08;2.80;99.90
2577;DHT22;1298;51.252;6.802;2023-02-15T04:51:54;2.80;99.90
2577;DHT22;1298;51.252;6.802;2023-02-15T04:54:39;2.70;99.90
2577;DHT22;1298;51.252;6.802;2023-02-15T04:57:25;2.70;99.90
2577;DHT22;1298;51.252;6.802;2023-02-15T05:00:10;2.70;99.90
2577;DHT22;1298;51.252;6.802;2023-02-15T05:02:56;2.70;99.90
2577;DHT22;1298;51.252;6.802;2023-02-15T05:05:42;2.70;99.90
2577;DHT22;1298;51.252;6.802;2023-02-15T05:08:27;2.60;99.90
2577;DHT22;1298;51.252;6.802;2023-02-15T05:11:12;2.60;99.90
2577;DHT22;1298;51.252;6.802;2023-02-15T05:13:57;2.60;99.90
2577;DHT22;1298;51.252;6.802;2023-02-15T05:16:43;2.60;99.90
2577;DHT22;1298;51.252;6.802;2023-02-15T05:19:28;2.50;99.90
2577;DHT22;1298;51.252;6.802;2023-02-15T05:22:14;2.50;99.90
2577;DHT22;1298;51.252;6.802;2023-02-15T05:25:00;2.50;99.90
2577;DHT22;1298;51.252;6.802;2023-02-15T05:28:03;2.50;99.90
2577;DHT22;1298;51.252;6.802;2023-02-15T05:31:07;2.50;99.90
2577;DHT22;1298;51.252;6.802;2023-02-15T05:33:54;2.40;99.90
2577;DHT22;1298;51.252;6.802;2023-02-15T05:36:39;2.30;99.90
2577;DHT22;1298;51.252;6.802;2023-02-15T05:39:26;2.40;99.90
2577;DHT22;1298;51.252;6.802;2023-02-15T05:42:11;2.40;99.90
2577;DHT22;1298;51.252;6.802;2023-02-15T05:44:56;2.40;99.90
2577;DHT22;1298;51.252;6.802;2023-02-15T05:47:41;2.30;99.90
2577;DHT22;1298;51.252;6.802;2023-02-15T05:50:26;2.40;99.90
2577;DHT22;1298;51.252;6.802;2023-02-15T05:53:11;2.30;99.90
2577;DHT22;1298;51.252;6.802;2023-02-15T05:55:58;2.40;99.90
2577;DHT22;1298;51.252;6.802;2023-02-15T05:58:44;2.30;99.90
2577;DHT22;1298;51.252;6.802;2023-02-15T06:01:29;2.30;99.90
2577;DHT22;1298;51.252;6.802;2023-02-15T06:04:14;2.30;99.90
2577;DHT22;1298;51.252;6.802;2023-02-15T06:06:59;2.30;99.90
2577;DHT22;1298;51.252;6.802;2023-02-15T06:09:44;2.30;99.90
2577;DHT22;1298;51.252;6.802;2023-02-15T06:12:31;2.30;99.90
2577;DHT22;1298;51.252;6.802;2023-02-15T06:15:16;2.30;99.90
2577;DHT22;1298;51.252;6.802;2023-02-15T06:18:01;2.30;99.90
2577;DHT22;1298;51.252;6.802;2023-02-15T06:20:46;2.20;99.90
2577;DHT22;1298;51.252;6.802;2023-02-15T06:23:32;2.20;99.90
2577;DHT22;1298;51.252;6.802;2023-02-15T06:26:17;2.10;99.90
2577;DHT22;1298;51.252;6.802;2023-02-15T06:29:04;2.10;99.90
2577;DHT22;1298;51.252;6.802;2023-02-15T06:31:49;2.10;99.90
2577;DHT22;1298;51.252;6.802;2023-02-15T06:34:35;2.20;99.90
2577;DHT22;1298;51.252;6.802;2023-02-15T06:37:20;2.20;99.90
2577;DHT22;1298;51.252;6.802;2023-02-15T06:40:05;2.20;99.90
2577;DHT22;1298;51.252;6.802;2023-02-15T06:42:51;2.20;99.90
2577;DHT22;1298;51.252;6.802;2023-02-15T06:45:39;2.30;99.90
2577;DHT22;1298;51.252;6.802;2023-02-15T06:48:24;2.30;99.90
2577;DHT22;1298;51.252;6.802;2023-02-15T06:51:09;2.30;99.90
2577;DHT22;1298;51.252;6.802;2023-02-15T06:53:54;2.30;99.90
2577;DHT22;1298;51.252;6.802;2023-02-15T06:56:40;2.30;99.90
2577;DHT22;1298;51.252;6.802;2023-02-15T06:59:25;2.30;99.90
2577;DHT22;1298;51.252;6.802;2023-02-15T07:02:12;2.60;99.90
2577;DHT22;1298;51.252;6.802;2023-02-15T07:04:58;2.50;99.90
2577;DHT22;1298;51.252;6.802;2023-02-15T07:07:43;2.50;99.90
2577;DHT22;1298;51.252;6.802;2023-02-15T07:10:28;2.40;99.90
2577;DHT22;1298;51.252;6.802;2023-02-15T07:13:13;2.40;99.90
2577;DHT22;1298;51.252;6.802;2023-02-15T07:15:57;2.40;99.90
2577;DHT22;1298;51.252;6.802;2023-02-15T07:18:44;2.50;99.90
2577;DHT22;1298;51.252;6.802;2023-02-15T07:21:29;2.50;99.90
2577;DHT22;1298;51.252;6.802;2023-02-15T07:27:00;2.50;99.90
2577;DHT22;1298;51.252;6.802;2023-02-15T07:29:45;2.50;99.90
2577;DHT22;1298;51.252;6.802;2023-02-15T07:32:31;2.50;99.90
2577;DHT22;1298;51.252;6.802;2023-02-15T07:35:18;2.60;99.90
2577;DHT22;1298;51.252;6.802;2023-02-15T07:38:03;2.60;99.90
2577;DHT22;1298;51.252;6.802;2023-02-15T07:40:48;2.60;99.90
2577;DHT22;1298;51.252;6.802;2023-02-15T07:43:34;2.80;99.90
2577;DHT22;1298;51.252;6.802;2023-02-15T07:46:20;2.80;99.90
2577;DHT22;1298;51.252;6.802;2023-02-15T07:49:05;2.70;99.90
2577;DHT22;1298;51.252;6.802;2023-02-15T07:51:52;2.80;99.90
2577;DHT22;1298;51.252;6.802;2023-02-15T07:54:37;2.80;99.90
2577;DHT22;1298;51.252;6.802;2023-02-15T07:57:22;2.90;99.90
2577;DHT22;1298;51.252;6.802;2023-02-15T08:00:08;2.90;99.90
2577;DHT22;1298;51.252;6.802;2023-02-15T08:02:53;2.90;99.90
2577;DHT22;1298;51.252;6.802;2023-02-15T08:05:55;3.00;99.90
2577;DHT22;1298;51.252;6.802;2023-02-15T08:08:42;3.00;99.90
2577;DHT22;1298;51.252;6.802;2023-02-15T08:11:28;3.00;99.90
2577;DHT22;1298;51.252;6.802;2023-02-15T08:14:16;3.10;99.90
2577;DHT22;1298;51.252;6.802;2023-02-15T08:17:02;3.20;99.90
2577;DHT22;1298;51.252;6.802;2023-02-15T08:19:48;3.20;99.90
2577;DHT22;1298;51.252;6.802;2023-02-15T08:22:34;3.30;99.90
2577;DHT22;1298;51.252;6.802;2023-02-15T08:25:20;3.40;99.90
2577;DHT22;1298;51.252;6.802;2023-02-15T08:28:06;3.50;99.90
2577;DHT22;1298;51.252;6.802;2023-02-15T08:30:51;3.60;99.90
2577;DHT22;1298;51.252;6.802;2023-02-15T08:33:37;3.70;99.90
2577;DHT22;1298;51.252;6.802;2023-02-15T08:36:25;3.70;99.90
2577;DHT22;1298;51.252;6.802;2023-02-15T08:39:11;3.90;99.90
2577;DHT22;1298;51.252;6.802;2023-02-15T08:41:58;3.90;99.90
2577;DHT22;1298;51.252;6.802;2023-02-15T08:44:43;4.00;99.90
2577;DHT22;1298;51.252;6.802;2023-02-15T08:47:28;4.20;99.90
2577;DHT22;1298;51.252;6.802;2023-02-15T08:50:13;4.20;99.90
2577;DHT22;1298;51.252;6.802;2023-02-15T08:52:59;4.30;99.90
2577;DHT22;1298;51.252;6.802;2023-02-15T08:55:44;4.40;99.90
2577;DHT22;1298;51.252;6.802;2023-02-15T08:58:30;4.50;99.90
2577;DHT22;1298;51.252;6.802;2023-02-15T09:01:16;4.50;99.90
2577;DHT22;1298;51.252;6.802;2023-02-15T09:04:04;4.60;99.90
2577;DHT22;1298;51.252;6.802;2023-02-15T09:06:52;4.70;99.90
2577;DHT22;1298;51.252;6.802;2023-02-15T09:09:39;4.70;99.90
2577;DHT22;1298;51.252;6.802;2023-02-15T09:12:24;4.80;99.90
2577;DHT22;1298;51.252;6.802;2023-02-15T09:15:10;4.90;99.90
2577;DHT22;1298;51.252;6.802;2023-02-15T09:17:55;5.00;99.90
2577;DHT22;1298;51.252;6.802;2023-02-15T09:20:43;5.10;99.90
2577;DHT22;1298;51.252;6.802;2023-02-15T09:23:29;5.20;99.90
2577;DHT22;1298;51.252;6.802;2023-02-15T09:26:15;5.30;99.90
2577;DHT22;1298;51.252;6.802;2023-02-15T09:29:01;5.30;99.90
2577;DHT22;1298;51.252;6.802;2023-02-15T09:31:49;5.40;99.90
2577;DHT22;1298;51.252;6.802;2023-02-15T09:34:34;5.50;99.90
2577;DHT22;1298;51.252;6.802;2023-02-15T09:37:19;5.60;99.90
2577;DHT22;1298;51.252;6.802;2023-02-15T09:40:05;5.70;99.90
2577;DHT22;1298;51.252;6.802;2023-02-15T09:42:57;5.80;99.90
2577;DHT22;1298;51.252;6.802;2023-02-15T09:45:54;5.90;99.90
2577;DHT22;1298;51.252;6.802;2023-02-15T09:48:44;6.00;99.90
2577;DHT22;1298;51.252;6.802;2023-02-15T09:51:37;6.00;99.90
2577;DHT22;1298;51.252;6.802;2023-02-15T09:54:33;6.10;99.90
2577;DHT22;1298;51.252;6.802;2023-02-15T09:57:23;6.20;99.90
2577;DHT22;1298;51.252;6.802;2023-02-15T10:00:15;6.30;99.90
2577;DHT22;1298;51.252;6.802;2023-02-15T10:03:07;6.40;99.90
2577;DHT22;1298;51.252;6.802;2023-02-15T10:06:03;6.50;99.90
2577;DHT22;1298;51.252;6.802;2023-02-15T10:08:52;6.60;99.90
2577;DHT22;1298;51.252;6.802;2023-02-15T10:11:44;6.70;99.90
2577;DHT22;1298;51.252;6.802;2023-02-15T10:14:37;6.70;99.90
2577;DHT22;1298;51.252;6.802;2023-02-15T10:17:31;6.80;99.90
2577;DHT22;1298;51.252;6.802;2023-02-15T10:20:23;6.90;99.90
2577;DHT22;1298;51.252;6.802;2023-02-15T10:23:16;7.10;99.90
2577;DHT22;1298;51.252;6.802;2023-02-15T10:26:08;7.20;99.90
2577;DHT22;1298;51.252;6.802;2023-02-15T10:28:59;7.30;99.90
2577;DHT22;1298;51.252;6.802;2023-02-15T10:31:47;7.40;99.90
2577;DHT22;1298;51.252;6.802;2023-02-15T10:34:35;7.50;99.90
2577;DHT22;1298;51.252;6.802;2023-02-15T10:37:34;7.60;99.90
2577;DHT22;1298;51.252;6.802;2023-02-15T10:40:27;7.70;99.90
2577;DHT22;1298;51.252;6.802;2023-02-15T10:43:17;7.80;99.90
2577;DHT22;1298;51.252;6.802;2023-02-15T10:46:06;7.90;99.90
2577;DHT22;1298;51.252;6.802;2023-02-15T10:48:59;8.00;99.90
2577;DHT22;1298;51.252;6.802;2023-02-15T10:51:50;8.00;99.90
2577;DHT22;1298;51.252;6.802;2023-02-15T10:54:41;8.10;99.90
2577;DHT22;1298;51.252;6.802;2023-02-15T10:57:33;8.10;99.90
2577;DHT22;1298;51.252;6.802;2023-02-15T11:00:19;8.30;99.90
2577;DHT22;1298;51.252;6.802;2023-02-15T11:03:14;8.40;99.90
2577;DHT22;1298;51.252;6.802;2023-02-15T11:06:02;8.40;99.90
2577;DHT22;1298;51.252;6.802;2023-02-15T11:08:50;8.40;99.90
2577;DHT22;1298;51.252;6.802;2023-02-15T11:11:37;8.50;99.90
2577;DHT22;1298;51.252;6.802;2023-02-15T11:14:31;8.60;99.90
2577;DHT22;1298;51.252;6.802;2023-02-15T11:17:19;8.60;99.90
2577;DHT22;1298;51.252;6.802;2023-02-15T11:20:08;8.70;99.90
2577;DHT22;1298;51.252;6.802;2023-02-15T11:22:59;8.80;99.90
2577;DHT22;1298;51.252;6.802;2023-02-15T11:25:46;8.90;99.90
2577;DHT22;1298;51.252;6.802;2023-02-15T11:28:33;8.90;99.90
2577;DHT22;1298;51.252;6.802;2023-02-15T11:31:21;9.10;99.90
2577;DHT22;1298;51.252;6.802;2023-02-15T11:34:12;9.10;99.90
2577;DHT22;1298;51.252;6.802;2023-02-15T11:37:00;9.20;99.90
2577;DHT22;1298;51.252;6.802;2023-02-15T11:39:47;9.20;99.90
2577;DHT22;1298;51.252;6.802;2023-02-15T11:42:35;9.30;99.90
2577;DHT22;1298;51.252;6.802;2023-02-15T11:45:21;9.40;99.90
2577;DHT22;1298;51.252;6.802;2023-02-15T11:48:10;9.60;99.90
2577;DHT22;1298;51.252;6.802;2023-02-15T11:50:56;9.70;99.90
2577;DHT22;1298;51.252;6.802;2023-02-15T11:53:41;9.80;99.90
2577;DHT22;1298;51.252;6.802;2023-02-15T11:56:27;9.90;99.90
2577;DHT22;1298;51.252;6.802;2023-02-15T11:59:24;10.10;99.90
2577;DHT22;1298;51.252;6.802;2023-02-15T12:02:14;10.10;99.90
2577;DHT22;1298;51.252;6.802;2023-02-15T12:05:03;10.20;99.90
2577;DHT22;1298;51.252;6.802;2023-02-15T12:07:52;10.30;99.90
2577;DHT22;1298;51.252;6.802;2023-02-15T12:10:40;10.40;99.90
2577;DHT22;1298;51.252;6.802;2023-02-15T12:13:26;10.40;99.90
2577;DHT22;1298;51.252;6.802;2023-02-15T12:16:11;10.50;99.90
2577;DHT22;1298;51.252;6.802;2023-02-15T12:18:58;10.70;99.90
2577;DHT22;1298;51.252;6.802;2023-02-15T12:21:45;10.70;99.90
2577;DHT22;1298;51.252;6.802;2023-02-15T12:24:34;10.90;99.90
2577;DHT22;1298;51.252;6.802;2023-02-15T12:27:21;11.00;99.90
2577;DHT22;1298;51.252;6.802;2023-02-15T12:30:14;11.00;99.90
2577;DHT22;1298;51.252;6.802;2023-02-15T12:33:03;11.10;99.90
2577;DHT22;1298;51.252;6.802;2023-02-15T12:35:54;11.10;99.90
2577;DHT22;1298;51.252;6.802;2023-02-15T12:38:43;11.20;99.90
2577;DHT22;1298;51.252;6.802;2023-02-15T12:41:28;11.40;99.90
2577;DHT22;1298;51.252;6.802;2023-02-15T12:44:15;11.50;99.90
2577;DHT22;1298;51.252;6.802;2023-02-15T12:47:03;11.50;99.90
2577;DHT22;1298;51.252;6.802;2023-02-15T12:50:04;11.60;99.90
2577;DHT22;1298;51.252;6.802;2023-02-15T12:52:50;11.70;99.90
2577;DHT22;1298;51.252;6.802;2023-02-15T12:55:37;11.90;99.90
2577;DHT22;1298;51.252;6.802;2023-02-15T12:58:23;12.00;99.90
2577;DHT22;1298;51.252;6.802;2023-02-15T13:01:10;12.00;99.90
2577;DHT22;1298;51.252;6.802;2023-02-15T13:03:57;12.00;99.90
2577;DHT22;1298;51.252;6.802;2023-02-15T13:06:46;12.30;99.90
2577;DHT22;1298;51.252;6.802;2023-02-15T13:09:35;12.60;99.90
2577;DHT22;1298;51.252;6.802;2023-02-15T13:12:24;12.80;99.90
2577;DHT22;1298;51.252;6.802;2023-02-15T13:15:22;13.30;99.90
2577;DHT22;1298;51.252;6.802;2023-02-15T13:18:10;14.40;99.90
2577;DHT22;1298;51.252;6.802;2023-02-15T13:20:58;15.20;99.90
2577;DHT22;1298;51.252;6.802;2023-02-15T13:23:45;16.40;99.90
2577;DHT22;1298;51.252;6.802;2023-02-15T13:26:32;17.70;99.90
2577;DHT22;1298;51.252;6.802;2023-02-15T13:29:22;18.70;99.90
2577;DHT22;1298;51.252;6.802;2023-02-15T13:32:11;19.30;99.90
2577;DHT22;1298;51.252;6.802;2023-02-15T13:34:58;19.50;99.90
2577;DHT22;1298;51.252;6.802;2023-02-15T13:40:48;19.70;99.90
2577;DHT22;1298;51.252;6.802;2023-02-15T13:43:39;19.70;99.90
2577;DHT22;1298;51.252;6.802;2023-02-15T13:46:34;20.00;99.90
2577;DHT22;1298;51.252;6.802;2023-02-15T13:49:25;20.20;99.90
2577;DHT22;1298;51.252;6.802;2023-02-15T13:52:17;20.70;99.90
2577;DHT22;1298;51.252;6.802;2023-02-15T13:55:08;20.80;99.90
2577;DHT22;1298;51.252;6.802;2023-02-15T13:58:01;21.00;99.90
2577;DHT22;1298;51.252;6.802;2023-02-15T14:00:53;21.80;99.90
2577;DHT22;1298;51.252;6.802;2023-02-15T14:03:50;21.60;99.90
2577;DHT22;1298;51.252;6.802;2023-02-15T14:06:41;21.60;99.90
2577;DHT22;1298;51.252;6.802;2023-02-15T14:09:30;21.50;99.90
2577;DHT22;1298;51.252;6.802;2023-02-15T14:12:27;21.30;99.90
2577;DHT22;1298;51.252;6.802;2023-02-15T14:15:26;21.70;99.90
2577;DHT22;1298;51.252;6.802;2023-02-15T14:18:15;22.00;99.90
2577;DHT22;1298;51.252;6.802;2023-02-15T14:21:05;22.20;99.90
2577;DHT22;1298;51.252;6.802;2023-02-15T14:24:01;21.90;99.90
2577;DHT22;1298;51.252;6.802;2023-02-15T14:26:52;21.40;99.90
2577;DHT22;1298;51.252;6.802;2023-02-15T14:29:43;20.90;99.90
2577;DHT22;1298;51.252;6.802;2023-02-15T14:32:33;19.70;99.90
2577;DHT22;1298;51.252;6.802;2023-02-15T14:35:20;19.10;99.90
2577;DHT22;1298;51.252;6.802;2023-02-15T14:38:11;19.30;99.90
2577;DHT22;1298;51.252;6.802;2023-02-15T14:40:58;19.40;99.90
2577;DHT22;1298;51.252;6.802;2023-02-15T14:43:48;19.30;99.90
2577;DHT22;1298;51.252;6.802;2023-02-15T14:46:36;18.80;99.90
2577;DHT22;1298;51.252;6.802;2023-02-15T14:49:25;18.10;99.90
2577;DHT22;1298;51.252;6.802;2023-02-15T14:52:11;18.10;99.90
2577;DHT22;1298;51.252;6.802;2023-02-15T14:54:58;18.00;99.90
2577;DHT22;1298;51.252;6.802;2023-02-15T14:57:48;17.70;99.90
2577;DHT22;1298;51.252;6.802;2023-02-15T15:00:40;17.70;99.90
2577;DHT22;1298;51.252;6.802;2023-02-15T15:03:26;17.80;99.90
2577;DHT22;1298;51.252;6.802;2023-02-15T15:06:22;17.60;99.90
2577;DHT22;1298;51.252;6.802;2023-02-15T15:09:12;17.00;99.90
2577;DHT22;1298;51.252;6.802;2023-02-15T15:15:00;16.40;99.90
2577;DHT22;1298;51.252;6.802;2023-02-15T15:17:53;16.00;99.90
2577;DHT22;1298;51.252;6.802;2023-02-15T15:20:48;15.60;99.90
2577;DHT22;1298;51.252;6.802;2023-02-15T15:23:38;15.20;99.90
2577;DHT22;1298;51.252;6.802;2023-02-15T15:26:28;14.80;99.90
2577;DHT22;1298;51.252;6.802;2023-02-15T15:29:13;14.60;99.90
2577;DHT22;1298;51.252;6.802;2023-02-15T15:32:21;14.60;99.90
2577;DHT22;1298;51.252;6.802;2023-02-15T15:35:12;14.40;99.90
2577;DHT22;1298;51.252;6.802;2023-02-15T15:38:05;14.10;99.90
2577;DHT22;1298;51.252;6.802;2023-02-15T15:41:06;13.90;99.90
2577;DHT22;1298;51.252;6.802;2023-02-15T15:44:04;13.70;99.90
2577;DHT22;1298;51.252;6.802;2023-02-15T15:49:56;13.40;99.90
2577;DHT22;1298;51.252;6.802;2023-02-15T15:52:44;13.40;99.90
2577;DHT22;1298;51.252;6.802;2023-02-15T15:55:30;13.30;99.90
2577;DHT22;1298;51.252;6.802;2023-02-15T15:58:17;13.30;99.90
2577;DHT22;1298;51.252;6.802;2023-02-15T16:01:04;13.20;99.90
2577;DHT22;1298;51.252;6.802;2023-02-15T16:03:51;13.00;99.90
2577;DHT22;1298;51.252;6.802;2023-02-15T16:06:38;12.90;99.90
2577;DHT22;1298;51.252;6.802;2023-02-15T16:09:25;12.80;99.90
2577;DHT22;1298;51.252;6.802;2023-02-15T16:12:13;12.70;99.90
2577;DHT22;1298;51.252;6.802;2023-02-15T16:15:00;12.60;99.90
2577;DHT22;1298;51.252;6.802;2023-02-15T16:17:47;12.50;99.90
2577;DHT22;1298;51.252;6.802;2023-02-15T16:20:34;12.40;99.90
2577;DHT22;1298;51.252;6.802;2023-02-15T16:23:25;12.30;99.90
2577;DHT22;1298;51.252;6.802;2023-02-15T16:26:15;12.20;99.90
2577;DHT22;1298;51.252;6.802;2023-02-15T16:29:12;12.10;99.90
2577;DHT22;1298;51.252;6.802;2023-02-15T16:32:01;11.90;99.90
2577;DHT22;1298;51.252;6.802;2023-02-15T16:34:51;11.80;99.90
2577;DHT22;1298;51.252;6.802;2023-02-15T16:37:36;11.60;99.90
2577;DHT22;1298;51.252;6.802;2023-02-15T16:40:27;11.60;99.90
2577;DHT22;1298;51.252;6.802;2023-02-15T16:43:16;11.40;99.90
2577;DHT22;1298;51.252;6.802;2023-02-15T16:46:03;11.30;99.90
2577;DHT22;1298;51.252;6.802;2023-02-15T16:48:49;11.20;99.90
2577;DHT22;1298;51.252;6.802;2023-02-15T16:51:36;11.10;99.90
2577;DHT22;1298;51.252;6.802;2023-02-15T16:54:21;11.10;99.90
2577;DHT22;1298;51.252;6.802;2023-02-15T16:57:14;11.00;99.90
2577;DHT22;1298;51.252;6.802;2023-02-15T17:00:03;11.00;99.90
2577;DHT22;1298;51.252;6.802;2023-02-15T17:02:52;10.90;99.90
2577;DHT22;1298;51.252;6.802;2023-02-15T17:05:40;10.90;99.90
2577;DHT22;1298;51.252;6.802;2023-02-15T17:08:30;10.90;99.90
2577;DHT22;1298;51.252;6.802;2023-02-15T17:11:16;10.90;99.90
2577;DHT22;1298;51.252;6.802;2023-02-15T17:14:13;10.80;99.90
2577;DHT22;1298;51.252;6.802;2023-02-15T17:17:05;10.70;99.90
2577;DHT22;1298;51.252;6.802;2023-02-15T17:19:52;10.70;99.90
2577;DHT22;1298;51.252;6.802;2023-02-15T17:22:38;10.60;99.90
2577;DHT22;1298;51.252;6.802;2023-02-15T17:25:28;10.60;99.90
2577;DHT22;1298;51.252;6.802;2023-02-15T17:28:15;10.50;99.90
2577;DHT22;1298;51.252;6.802;2023-02-15T17:31:03;10.40;99.90
2577;DHT22;1298;51.252;6.802;2023-02-15T17:33:53;10.40;99.90
2577;DHT22;1298;51.252;6.802;2023-02-15T17:36:39;10.30;99.90
2577;DHT22;1298;51.252;6.802;2023-02-15T17:39:41;10.20;99.90
2577;DHT22;1298;51.252;6.802;2023-02-15T17:42:26;10.20;99.90
2577;DHT22;1298;51.252;6.802;2023-02-15T17:45:11;10.20;99.90
2577;DHT22;1298;51.252;6.802;2023-02-15T17:47:58;10.20;99.90
2577;DHT22;1298;51.252;6.802;2023-02-15T17:50:44;10.10;99.90
2577;DHT22;1298;51.252;6.802;2023-02-15T17:53:30;10.10;99.90
2577;DHT22;1298;51.252;6.802;2023-02-15T17:56:16;10.00;99.90
2577;DHT22;1298;51.252;6.802;2023-02-15T17:59:00;9.90;99.90
2577;DHT22;1298;51.252;6.802;2023-02-15T18:01:50;9.90;99.90
2577;DHT22;1298;51.252;6.802;2023-02-15T18:04:54;9.80;99.90
2577;DHT22;1298;51.252;6.802;2023-02-15T18:07:58;9.80;99.90
2577;DHT22;1298;51.252;6.802;2023-02-15T18:11:01;9.70;99.90
2577;DHT22;1298;51.252;6.802;2023-02-15T18:14:05;9.70;99.90
2577;DHT22;1298;51.252;6.802;2023-02-15T18:16:51;9.70;99.90
2577;DHT22;1298;51.252;6.802;2023-02-15T18:19:38;9.60;99.90
2577;DHT22;1298;51.252;6.802;2023-02-15T18:22:26;9.60;99.90
2577;DHT22;1298;51.252;6.802;2023-02-15T18:25:12;9.50;99.90
2577;DHT22;1298;51.252;6.802;2023-02-15T18:28:07;9.50;99.90
2577;DHT22;1298;51.252;6.802;2023-02-15T18:30:53;9.50;99.90
2577;DHT22;1298;51.252;6.802;2023-02-15T18:33:39;9.40;99.90
2577;DHT22;1298;51.252;6.802;2023-02-15T18:36:27;9.40;99.90
2577;DHT22;1298;51.252;6.802;2023-02-15T18:39:22;9.30;99.90
2577;DHT22;1298;51.252;6.802;2023-02-15T18:42:14;9.40;99.90
2577;DHT22;1298;51.252;6.802;2023-02-15T18:45:10;9.30;99.90
2577;DHT22;1298;51.252;6.802;2023-02-15T18:47:58;9.30;99.90